createdAt,value
2022-09-15T00:01:30.675Z,95629.03
2022-09-15T00:03:58.872Z,95623.41
2022-09-15T00:06:26.922Z,95628.75
2022-09-15T00:08:56.606Z,95628.50
2022-09-15T00:11:27.743Z,95619.66
2022-09-15T00:13:57.584Z,95616.53
2022-09-15T00:16:28.257Z,95614.34
2022-09-15T00:18:56.684Z,95613.88
2022-09-15T00:21:30.434Z,95618.63
2022-09-15T00:24:01.578Z,95618.19
2022-09-15T00:26:31.594Z,95621.31
2022-09-15T00:29:01.429Z,95608.44
2022-09-15T00:31:32.250Z,95607.97
2022-09-15T00:34:03.849Z,95613.00
2022-09-15T00:36:32.543Z,95609.75
2022-09-15T00:39:02.171Z,95618.22
2022-09-15T00:41:31.125Z,95615.81
2022-09-15T00:44:02.656Z,95618.47
2022-09-15T00:46:39.049Z,95616.75
2022-09-15T00:49:10.695Z,95614.81
2022-09-15T00:51:48.744Z,95614.78
2022-09-15T00:54:22.987Z,95613.69
2022-09-15T00:56:56.035Z,95612.59
2022-09-15T00:59:28.589Z,95614.31
2022-09-15T01:02:03.076Z,95623.69
2022-09-15T01:04:31.257Z,95604.78
2022-09-15T01:07:04.508Z,95612.50
2022-09-15T01:09:39.581Z,95614.88
2022-09-15T01:12:08.585Z,95612.34
2022-09-15T01:14:36.953Z,95614.06
2022-09-15T01:17:16.923Z,95610.56
2022-09-15T01:20:43.233Z,95614.22
2022-09-15T01:23:58.504Z,95610.56
2022-09-15T01:27:37.847Z,95616.91
2022-09-15T01:30:08.632Z,95603.00
2022-09-15T01:33:09.648Z,95598.34
2022-09-15T01:36:04.533Z,95585.22
2022-09-15T01:38:50.273Z,95599.38
2022-09-15T01:41:25.347Z,95596.47
2022-09-15T01:44:01.982Z,95595.63
2022-09-15T01:46:35.754Z,95594.81
2022-09-15T01:49:05.962Z,95601.75
2022-09-15T01:51:36.755Z,95589.41
2022-09-15T01:54:07.427Z,95581.72
2022-09-15T01:56:37.518Z,95580.63
2022-09-15T01:59:06.032Z,95581.47
2022-09-15T02:01:43.790Z,95581.47
2022-09-15T02:04:18.864Z,95583.84
2022-09-15T02:06:56.379Z,95592.16
2022-09-15T02:09:29.744Z,95586.66
2022-09-15T02:12:08.748Z,95592.72
2022-09-15T02:14:52.666Z,95589.84
2022-09-15T02:17:23.004Z,95584.50
2022-09-15T02:19:56.391Z,95585.00
2022-09-15T02:22:27.787Z,95591.22
2022-09-15T02:25:03.496Z,95587.53
2022-09-15T02:27:37.660Z,95587.66
2022-09-15T02:30:12.623Z,95588.63
2022-09-15T02:32:48.272Z,95585.59
2022-09-15T02:35:17.877Z,95591.22
2022-09-15T02:37:46.644Z,95580.03
2022-09-15T02:40:14.904Z,95583.50
2022-09-15T02:42:53.659Z,95574.47
2022-09-15T02:45:22.179Z,95579.25
2022-09-15T02:47:51.717Z,95569.50
2022-09-15T02:50:20.597Z,95571.16
2022-09-15T02:52:48.586Z,95572.16
2022-09-15T02:55:16.832Z,95579.38
2022-09-15T02:57:44.828Z,95574.28
2022-09-15T03:00:15.854Z,95562.00
2022-09-15T03:02:46.485Z,95561.22
2022-09-15T03:05:18.522Z,95567.25
2022-09-15T03:07:46.536Z,95561.69
2022-09-15T03:10:16.109Z,95563.00
2022-09-15T03:12:47.531Z,95567.25
2022-09-15T03:15:17.564Z,95570.22
2022-09-15T03:17:47.419Z,95567.84
2022-09-15T03:20:20.043Z,95566.75
2022-09-15T03:22:48.403Z,95574.03
2022-09-15T03:25:17.438Z,95579.09
2022-09-15T03:27:45.511Z,95581.28
2022-09-15T03:30:16.875Z,95577.78
2022-09-15T03:32:44.869Z,95582.41
2022-09-15T03:35:12.873Z,95582.31
2022-09-15T03:37:42.233Z,95569.28
2022-09-15T03:40:11.415Z,95567.69
2022-09-15T03:42:39.531Z,95570.44
2022-09-15T03:45:08.777Z,95564.66
2022-09-15T03:47:36.795Z,95563.53
2022-09-15T03:50:06.718Z,95550.69
2022-09-15T03:52:34.670Z,95560.97
2022-09-15T03:55:04.102Z,95562.72
2022-09-15T03:57:32.219Z,95562.72
2022-09-15T04:00:00.255Z,95561.50
2022-09-15T04:02:28.258Z,95563.09
2022-09-15T04:04:56.238Z,95563.09
2022-09-15T04:07:25.178Z,95559.91
2022-09-15T04:09:53.267Z,95563.66
2022-09-15T04:12:22.579Z,95569.72
2022-09-15T04:14:50.524Z,95576.59
2022-09-15T04:17:18.465Z,95566.19
2022-09-15T04:19:46.460Z,95568.91
2022-09-15T04:22:17.805Z,95568.25
2022-09-15T04:24:47.970Z,95565.03
2022-09-15T04:27:16.693Z,95574.97
2022-09-15T04:29:46.467Z,95565.69
2022-09-15T04:32:14.465Z,95564.66
2022-09-15T04:34:42.407Z,95553.19
2022-09-15T04:37:10.856Z,95564.66
2022-09-15T04:39:38.854Z,95561.44
2022-09-15T04:42:07.750Z,95558.69
2022-09-15T04:44:36.054Z,95566.13
2022-09-15T04:47:06.196Z,95557.53
2022-09-15T04:49:34.455Z,95558.03
2022-09-15T04:52:06.617Z,95553.88
2022-09-15T04:54:37.052Z,95559.41
2022-09-15T04:57:05.416Z,95569.59
2022-09-15T04:59:33.664Z,95567.41
2022-09-15T05:02:01.702Z,95572.03
2022-09-15T05:04:31.194Z,95577.88
2022-09-15T05:06:59.214Z,95575.78
2022-09-15T05:09:29.460Z,95570.84
2022-09-15T05:11:57.666Z,95576.72
2022-09-15T05:14:25.695Z,95575.25
2022-09-15T05:16:53.722Z,95585.81
2022-09-15T05:19:21.809Z,95578.53
2022-09-15T05:21:51.207Z,95584.50
2022-09-15T05:24:19.255Z,95579.59
2022-09-15T05:26:47.193Z,95584.34
2022-09-15T05:29:15.185Z,95577.06
2022-09-15T05:31:43.275Z,95579.94
2022-09-15T05:34:11.661Z,95582.97
2022-09-15T05:36:39.698Z,95588.19
2022-09-15T05:39:08.997Z,95588.09
2022-09-15T05:41:36.963Z,95588.31
2022-09-15T05:44:04.936Z,95584.88
2022-09-15T05:46:33.008Z,95578.28
2022-09-15T05:49:25.208Z,95580.09
2022-09-15T05:51:54.083Z,95583.41
2022-09-15T05:54:23.466Z,95580.75
2022-09-15T05:56:51.512Z,95587.81
2022-09-15T05:59:19.739Z,95579.81
2022-09-15T06:01:48.242Z,95583.25
2022-09-15T06:04:16.227Z,95579.53
2022-09-15T06:06:44.210Z,95585.44
2022-09-15T06:09:12.187Z,95589.03
2022-09-15T06:11:41.498Z,95590.56
2022-09-15T06:14:09.702Z,95581.03
2022-09-15T06:16:38.025Z,95593.09
2022-09-15T06:19:06.407Z,95597.34
2022-09-15T06:21:34.725Z,95602.19
2022-09-15T06:24:06.845Z,95604.19
2022-09-15T06:26:35.779Z,95613.31
2022-09-15T06:29:06.331Z,95606.44
2022-09-15T06:31:35.701Z,95611.09
2022-09-15T06:34:05.417Z,95614.25
2022-09-15T06:36:34.099Z,95630.34
2022-09-15T06:39:02.770Z,95625.84
2022-09-15T06:41:52.599Z,95621.59
2022-09-15T06:44:21.194Z,95630.19
2022-09-15T06:46:49.803Z,95627.38
2022-09-15T06:49:18.020Z,95623.50
2022-09-15T06:51:46.398Z,95622.69
2022-09-15T06:54:16.337Z,95626.94
2022-09-15T06:56:45.053Z,95633.16
2022-09-15T06:59:15.507Z,95647.78
2022-09-15T07:01:45.001Z,95649.16
2022-09-15T07:04:12.941Z,95636.31
2022-09-15T07:06:41.386Z,95635.50
2022-09-15T07:09:09.530Z,95634.22
2022-09-15T07:11:37.499Z,95635.75
2022-09-15T07:14:05.499Z,95635.50
2022-09-15T07:16:34.004Z,95634.50
2022-09-15T07:19:03.647Z,95631.53
2022-09-15T07:21:31.645Z,95634.94
2022-09-15T07:24:02.696Z,95645.34
2022-09-15T07:26:33.801Z,95646.97
2022-09-15T07:29:05.248Z,95643.22
2022-09-15T07:31:36.130Z,95647.19
2022-09-15T07:34:06.203Z,95650.19
2022-09-15T07:36:34.585Z,95639.72
2022-09-15T07:39:06.511Z,95645.78
2022-09-15T07:41:35.086Z,95647.94
2022-09-15T07:44:04.743Z,95640.53
2022-09-15T07:46:34.367Z,95644.84
2022-09-15T07:49:03.744Z,95651.69
2022-09-15T07:51:33.098Z,95656.00
2022-09-15T07:54:01.658Z,95654.44
2022-09-15T07:56:29.857Z,95649.38
2022-09-15T07:58:58.405Z,95655.06
2022-09-15T08:01:27.056Z,95664.69
2022-09-15T08:03:55.223Z,95667.59
2022-09-15T08:06:26.469Z,95661.63
2022-09-15T08:09:00.348Z,95669.22
2022-09-15T08:11:31.556Z,95678.31
2022-09-15T08:14:02.997Z,95671.84
2022-09-15T08:16:31.496Z,95678.25
2022-09-15T08:19:01.176Z,95673.47
2022-09-15T08:21:29.543Z,95679.56
2022-09-15T08:24:01.166Z,95675.25
2022-09-15T08:26:30.866Z,95679.22
2022-09-15T08:28:59.389Z,95678.78
2022-09-15T08:31:27.529Z,95687.53
2022-09-15T08:33:56.898Z,95688.09
2022-09-15T08:36:28.273Z,95688.81
2022-09-15T08:38:57.873Z,95685.28
2022-09-15T08:41:30.614Z,95697.88
2022-09-15T08:44:05.659Z,95694.44
2022-09-15T08:46:41.411Z,95699.72
2022-09-15T08:49:30.550Z,95698.91
2022-09-15T08:52:10.954Z,95703.97
2022-09-15T08:54:40.571Z,95703.69
2022-09-15T08:57:17.822Z,95707.03
2022-09-15T08:59:45.836Z,95707.38
2022-09-15T09:03:05.662Z,95712.94
2022-09-15T09:05:53.627Z,95715.28
2022-09-15T09:09:04.898Z,95723.28
2022-09-15T09:11:54.314Z,95719.72
2022-09-15T09:14:34.671Z,95713.28
2022-09-15T09:17:25.011Z,95718.97
2022-09-15T09:20:31.841Z,95725.22
2022-09-15T09:23:03.463Z,95725.00
2022-09-15T09:25:31.485Z,95734.06
2022-09-15T09:28:04.513Z,95723.72
2022-09-15T09:30:35.909Z,95717.88
2022-09-15T09:33:23.015Z,95731.22
2022-09-15T09:35:52.911Z,95740.63
2022-09-15T09:38:25.190Z,95741.72
2022-09-15T09:40:55.740Z,95733.25
2022-09-15T09:43:30.070Z,95738.19
2022-09-15T09:45:59.211Z,95737.94
2022-09-15T09:48:29.835Z,95733.22
2022-09-15T09:50:58.199Z,95729.50
2022-09-15T09:53:30.978Z,95732.22
2022-09-15T09:56:18.932Z,95746.09
2022-09-15T09:58:48.655Z,95750.13
2022-09-15T10:01:19.912Z,95738.16
2022-09-15T10:03:48.369Z,95738.22
2022-09-15T10:06:20.627Z,95734.25
2022-09-15T10:08:58.342Z,95743.28
2022-09-15T10:11:43.137Z,95746.84
2022-09-15T10:14:22.829Z,95750.56
2022-09-15T10:17:02.424Z,95754.03
2022-09-15T10:19:34.222Z,95758.84
2022-09-15T10:22:03.992Z,95761.81
2022-09-15T10:24:37.307Z,95753.53
2022-09-15T10:27:26.312Z,95758.66
2022-09-15T10:29:57.036Z,95760.53
2022-09-15T10:32:28.950Z,95761.31
2022-09-15T10:35:07.366Z,95762.66
2022-09-15T10:37:49.023Z,95765.59
2022-09-15T10:40:34.531Z,95766.94
2022-09-15T10:43:25.624Z,95774.75
2022-09-15T10:46:04.855Z,95781.13
2022-09-15T10:48:44.881Z,95783.78
2022-09-15T10:51:33.382Z,95781.41
2022-09-15T10:54:23.035Z,95775.31
2022-09-15T10:56:58.859Z,95789.16
2022-09-15T10:59:44.200Z,95785.97
2022-09-15T11:02:56.449Z,95788.16
2022-09-15T11:05:37.161Z,95799.09
2022-09-15T11:08:33.080Z,95790.59
2022-09-15T11:11:13.671Z,95791.94
2022-09-15T11:13:56.481Z,95782.91
2022-09-15T11:16:41.564Z,95791.44
2022-09-15T11:19:34.159Z,95811.41
2022-09-15T11:22:08.208Z,95805.81
2022-09-15T11:24:45.273Z,95806.63
2022-09-15T11:27:21.947Z,95810.09
2022-09-15T11:30:05.318Z,95811.72
2022-09-15T11:32:41.684Z,95825.25
2022-09-15T11:35:43.341Z,95819.16
2022-09-15T11:38:24.192Z,95829.53
2022-09-15T11:40:58.762Z,95835.13
2022-09-15T11:43:35.527Z,95838.03
2022-09-15T11:46:12.387Z,95839.94
2022-09-15T11:48:44.939Z,95839.38
2022-09-15T11:51:17.587Z,95848.97
2022-09-15T11:53:52.617Z,95853.22
2022-09-15T11:56:28.192Z,95849.50
2022-09-15T11:59:08.770Z,95860.13
2022-09-15T12:01:48.256Z,95869.72
2022-09-15T12:04:23.026Z,95872.09
2022-09-15T12:07:01.305Z,95876.06
2022-09-15T12:09:29.598Z,95878.22
2022-09-15T12:12:02.731Z,95878.19
2022-09-15T12:14:36.942Z,95877.13
2022-09-15T12:17:09.782Z,95882.44
2022-09-15T12:19:54.495Z,95884.06
2022-09-15T12:22:29.494Z,95885.63
2022-09-15T12:25:04.455Z,95885.66
2022-09-15T12:27:32.514Z,95884.88
2022-09-15T12:30:02.014Z,95890.94
2022-09-15T12:32:31.963Z,95889.34
2022-09-15T12:35:12.810Z,95890.72
2022-09-15T12:37:47.207Z,95898.41
2022-09-15T12:40:37.684Z,95896.56
2022-09-15T12:43:20.620Z,95897.88
2022-09-15T12:45:57.849Z,95903.22
2022-09-15T12:48:30.077Z,95911.50
2022-09-15T12:51:02.519Z,95907.22
2022-09-15T12:56:11.639Z,95901.63
2022-09-15T12:58:45.748Z,95904.31
2022-09-15T13:01:49.505Z,95903.75
2022-09-15T13:04:55.509Z,95914.91
2022-09-15T13:07:53.724Z,95916.78
2022-09-15T13:10:42.219Z,95916.00
2022-09-15T13:13:33.333Z,95923.97
2022-09-15T13:16:03.390Z,95922.38
2022-09-15T13:18:33.156Z,95922.13
2022-09-15T13:21:08.632Z,95923.16
2022-09-15T13:23:42.608Z,95919.44
2022-09-15T13:26:22.552Z,95915.72
2022-09-15T13:28:55.625Z,95914.38
2022-09-15T13:31:39.816Z,95926.63
2022-09-15T13:35:09.034Z,95919.97
2022-09-15T13:38:29.138Z,95921.78
2022-09-15T13:41:42.801Z,95913.28
2022-09-15T13:44:56.029Z,95919.91
2022-09-15T13:47:46.183Z,95913.28
2022-09-15T13:50:21.369Z,95914.59
2022-09-15T13:53:27.068Z,95918.59
2022-09-15T13:55:55.573Z,95916.69
2022-09-15T14:01:17.050Z,95922.81
2022-09-15T14:03:50.274Z,95914.03
2022-09-15T14:06:22.270Z,95918.06
2022-09-15T14:08:54.148Z,95920.94
2022-09-15T14:11:30.846Z,95920.13
2022-09-15T14:14:01.428Z,95911.09
2022-09-15T14:16:36.258Z,95902.03
2022-09-15T14:19:23.959Z,95910.78
2022-09-15T14:21:56.207Z,95920.06
2022-09-15T14:24:30.511Z,95922.72
2022-09-15T14:27:03.324Z,95913.13
2022-09-15T14:29:33.023Z,95911.50
2022-09-15T14:32:03.914Z,95912.78
2022-09-15T14:34:36.580Z,95912.53
2022-09-15T14:37:08.808Z,95903.44
2022-09-15T14:39:37.707Z,95907.66
2022-09-15T14:42:22.826Z,95903.94
2022-09-15T14:47:43.704Z,95898.25
2022-09-15T14:50:17.366Z,95898.81
2022-09-15T14:52:49.403Z,95907.56
2022-09-15T14:55:23.633Z,95907.06
2022-09-15T14:58:02.614Z,95908.66
2022-09-15T15:00:38.330Z,95910.00
2022-09-15T15:03:22.219Z,95908.69
2022-09-15T15:06:02.654Z,95908.44
2022-09-15T15:08:37.902Z,95908.38
2022-09-15T15:11:10.663Z,95917.75
2022-09-15T15:13:42.202Z,95919.38
2022-09-15T15:16:21.487Z,95914.84
2022-09-15T15:18:51.242Z,95914.03
2022-09-15T15:21:41.618Z,95914.53
2022-09-15T15:24:18.378Z,95917.72
2022-09-15T15:26:47.699Z,95926.78
2022-09-15T15:29:43.311Z,95916.69
2022-09-15T15:32:15.985Z,95923.56
2022-09-15T15:34:51.991Z,95923.53
2022-09-15T15:37:28.011Z,95927.28
2022-09-15T15:39:57.276Z,95926.00
2022-09-15T15:42:28.440Z,95926.25
2022-09-15T15:45:05.186Z,95922.22
2022-09-15T15:47:37.831Z,95919.06
2022-09-15T15:50:14.214Z,95927.88
2022-09-15T15:52:43.624Z,95934.78
2022-09-15T15:55:15.859Z,95927.28
2022-09-15T15:57:45.577Z,95926.81
2022-09-15T16:00:22.091Z,95932.19
2022-09-15T16:02:53.118Z,95928.44
2022-09-15T16:05:26.208Z,95926.03
2022-09-15T16:07:57.072Z,95924.16
2022-09-15T16:10:29.935Z,95919.09
2022-09-15T16:12:58.048Z,95925.50
2022-09-15T16:15:26.048Z,95928.97
2022-09-15T16:17:55.393Z,95928.44
2022-09-15T16:20:25.071Z,95930.78
2022-09-15T16:22:53.297Z,95934.53
2022-09-15T16:25:31.834Z,95924.44
2022-09-15T16:28:00.493Z,95930.28
2022-09-15T16:30:28.811Z,95928.16
2022-09-15T16:32:58.534Z,95935.34
2022-09-15T16:35:35.994Z,95938.59
2022-09-15T16:38:04.409Z,95932.22
2022-09-15T16:40:32.458Z,95940.75
2022-09-15T16:43:00.850Z,95932.22
2022-09-15T16:45:36.523Z,95942.91
2022-09-15T16:48:09.759Z,95946.63
2022-09-15T16:50:40.163Z,95943.72
2022-09-15T16:53:15.752Z,95948.00
2022-09-15T16:55:47.164Z,95950.13
2022-09-15T16:58:17.915Z,95952.28
2022-09-15T17:00:48.213Z,95954.69
2022-09-15T17:03:21.259Z,95957.34
2022-09-15T17:05:51.133Z,95960.53
2022-09-15T17:08:21.330Z,95964.81
2022-09-15T17:10:50.258Z,95961.13
2022-09-15T17:13:23.963Z,95960.84
2022-09-15T17:15:54.966Z,95966.97
2022-09-15T17:18:24.926Z,95961.88
2022-09-15T17:20:53.303Z,95973.88
2022-09-15T17:23:24.550Z,95970.16
2022-09-15T17:25:57.375Z,95968.03
2022-09-15T17:28:28.761Z,95979.19
2022-09-15T17:31:00.330Z,95978.69
2022-09-15T17:33:32.400Z,95973.63
2022-09-15T17:36:01.327Z,95966.97
2022-09-15T17:38:29.316Z,95970.16
2022-09-15T17:40:57.286Z,95968.34
2022-09-15T17:43:27.639Z,95967.78
2022-09-15T17:45:56.219Z,95967.56
2022-09-15T17:48:25.354Z,95963.81
2022-09-15T17:50:54.823Z,95969.94
2022-09-15T17:53:26.559Z,95959.03
2022-09-15T17:55:56.328Z,95962.53
2022-09-15T17:58:26.491Z,95957.97
2022-09-15T18:00:55.335Z,95960.66
2022-09-15T18:03:27.609Z,95965.72
2022-09-15T18:05:59.148Z,95959.03
2022-09-15T18:08:28.742Z,95961.97
2022-09-15T18:10:57.175Z,95967.81
2022-09-15T18:13:27.875Z,95967.03
2022-09-15T18:15:56.567Z,95970.50
2022-09-15T18:18:27.005Z,95975.03
2022-09-15T18:20:57.825Z,95980.88
2022-09-15T18:23:29.646Z,95983.56
2022-09-15T18:25:58.235Z,95989.94
2022-09-15T18:28:26.287Z,95994.19
2022-09-15T18:30:54.326Z,95989.94
2022-09-15T18:33:25.182Z,95992.59
2022-09-15T18:35:56.636Z,95995.28
2022-09-15T18:38:25.826Z,96003.78
2022-09-15T18:40:56.123Z,95995.78
2022-09-15T18:43:26.817Z,96000.88
2022-09-15T18:45:59.242Z,96006.97
2022-09-15T18:48:27.364Z,96008.06
2022-09-15T18:50:57.186Z,96013.91
2022-09-15T18:53:25.429Z,96003.81
2022-09-15T18:55:53.407Z,96017.91
2022-09-15T18:58:22.383Z,96006.72
2022-09-15T19:00:50.483Z,96005.41
2022-09-15T19:03:18.563Z,96014.97
2022-09-15T19:05:46.569Z,96007.78
2022-09-15T19:08:15.881Z,96008.06
2022-09-15T19:10:44.179Z,96011.00
2022-09-15T19:13:14.057Z,96006.19
2022-09-15T19:15:43.680Z,96016.03
2022-09-15T19:18:11.769Z,96012.56
2022-09-15T19:20:40.138Z,96016.25
2022-09-15T19:23:09.332Z,96018.66
2022-09-15T19:25:41.323Z,96024.47
2022-09-15T19:28:09.523Z,96015.69
2022-09-15T19:30:37.626Z,96023.41
2022-09-15T19:33:05.872Z,96020.81
2022-09-15T19:35:33.866Z,96019.66
2022-09-15T19:38:01.861Z,96026.88
2022-09-15T19:40:29.894Z,96023.41
2022-09-15T19:42:59.258Z,96026.56
2022-09-15T19:45:27.238Z,96031.88
2022-09-15T19:47:55.291Z,96027.91
2022-09-15T19:50:23.592Z,96033.22
2022-09-15T19:52:53.412Z,96031.06
2022-09-15T19:55:23.405Z,96031.56
2022-09-15T19:57:51.538Z,96030.75
2022-09-15T20:00:21.416Z,96033.41
2022-09-15T20:02:49.810Z,96046.22
2022-09-15T20:05:18.131Z,96048.28
2022-09-15T20:07:48.000Z,96048.81
2022-09-15T20:10:16.717Z,96053.03
2022-09-15T20:12:44.678Z,96050.63
2022-09-15T20:15:12.707Z,96049.03
2022-09-15T20:17:42.288Z,96053.53
2022-09-15T20:20:12.377Z,96053.28
2022-09-15T20:22:40.414Z,96053.25
2022-09-15T20:25:09.152Z,96049.81
2022-09-15T20:27:37.115Z,96049.78
2022-09-15T20:30:07.009Z,96044.16
2022-09-15T20:32:34.994Z,96046.31
2022-09-15T20:35:04.871Z,96046.63
2022-09-15T20:37:37.433Z,96048.69
2022-09-15T20:40:07.815Z,96048.97
2022-09-15T20:42:36.093Z,96045.72
2022-09-15T20:45:05.355Z,96059.00
2022-09-15T20:47:33.433Z,96048.63
2022-09-15T20:50:01.398Z,96055.00
2022-09-15T20:52:37.415Z,96055.00
2022-09-15T20:55:07.216Z,96050.97
2022-09-15T20:57:35.316Z,96056.06
2022-09-15T21:00:06.044Z,96051.84
2022-09-15T21:02:34.134Z,96051.28
2022-09-15T21:05:02.172Z,96058.66
2022-09-15T21:07:30.175Z,96048.56
2022-09-15T21:09:59.455Z,96055.19
2022-09-15T21:12:29.601Z,96053.34
2022-09-15T21:14:57.836Z,96050.34
2022-09-15T21:17:26.116Z,96048.22
2022-09-15T21:19:54.160Z,96052.81
2022-09-15T21:22:22.125Z,96053.53
2022-09-15T21:24:50.471Z,96059.09
2022-09-15T21:27:29.975Z,96061.72
2022-09-15T21:29:58.330Z,96068.13
2022-09-15T21:32:26.312Z,96061.22
2022-09-15T21:34:55.778Z,96067.78
2022-09-15T21:37:23.940Z,96068.44
2022-09-15T21:39:51.950Z,96075.91
2022-09-15T21:42:22.396Z,96072.94
2022-09-15T21:44:50.807Z,96077.41
2022-09-15T21:47:18.970Z,96075.53
2022-09-15T21:49:46.942Z,96079.28
2022-09-15T21:52:15.014Z,96077.13
2022-09-15T21:54:43.324Z,96084.34
2022-09-15T21:57:11.737Z,96076.31
2022-09-15T21:59:41.783Z,96077.91
2022-09-15T22:02:11.546Z,96076.81
2022-09-15T22:04:39.849Z,96067.50
2022-09-15T22:07:09.743Z,96073.91
2022-09-15T22:09:38.628Z,96069.13
2022-09-15T22:12:07.283Z,96071.56
2022-09-15T22:14:35.419Z,96065.38
2022-09-15T22:17:05.624Z,96064.59
2022-09-15T22:19:33.701Z,96068.03
2022-09-15T22:22:02.083Z,96074.09
2022-09-15T22:24:30.162Z,96076.25
2022-09-15T22:26:58.159Z,96083.03
2022-09-15T22:29:26.160Z,96078.06
2022-09-15T22:31:54.379Z,96076.50
2022-09-15T22:34:24.170Z,96083.66
2022-09-15T22:36:52.119Z,96077.34
2022-09-15T22:39:20.104Z,96076.19
2022-09-15T22:41:48.053Z,96076.75
2022-09-15T22:44:21.352Z,96079.94
2022-09-15T22:46:51.213Z,96074.06
2022-09-15T22:49:19.752Z,96076.66
2022-09-15T22:51:49.061Z,96073.00
2022-09-15T22:54:17.267Z,96079.41
2022-09-15T22:56:46.883Z,96082.13
2022-09-15T22:59:14.865Z,96071.16
2022-09-15T23:01:42.897Z,96083.69
2022-09-15T23:04:11.005Z,96081.59
2022-09-15T23:06:39.014Z,96081.09
2022-09-15T23:09:11.242Z,96081.13
2022-09-15T23:11:40.693Z,96080.13
2022-09-15T23:14:13.107Z,96085.22
2022-09-15T23:16:41.786Z,96078.13
2022-09-15T23:19:12.234Z,96082.03
2022-09-15T23:21:40.853Z,96078.25
2022-09-15T23:24:12.214Z,96080.66
2022-09-15T23:26:41.327Z,96074.38
2022-09-15T23:29:10.000Z,96076.69
2022-09-15T23:31:38.281Z,96073.75
2022-09-15T23:34:06.334Z,96068.97
2022-09-15T23:36:34.302Z,96070.63
2022-09-15T23:39:02.384Z,96075.84
2022-09-15T23:41:31.793Z,96063.91
2022-09-15T23:43:59.889Z,96065.81
2022-09-15T23:46:27.984Z,96061.59
2022-09-15T23:48:56.015Z,96060.03
2022-09-15T23:51:24.051Z,96070.50
2022-09-15T23:53:52.126Z,96060.59
2022-09-15T23:56:20.150Z,96068.03
2022-09-15T23:58:49.486Z,96064.84
